Time;durP1;ratioP1;P1;durP2;ratioP2;P2;SDS_P1;SDS_P2;PMS_P1;PMS_P2;Temp;Humidity;BMP_temperature;BMP_pressure;BME280_temperature;BME280_humidity;BME280_pressure;Samples;Min_cycle;Max_cycle;Signal;HPM_P1;HPM_P2
2023/07/23 00:00:32;;;;;;;9.63;3.80;;;14.80;99.90;;;;;;5003694;28;20045;-71
2023/07/23 00:02:58;;;;;;;7.47;3.47;;;14.90;99.90;;;;;;5012208;28;20029;-71
2023/07/23 00:05:24;;;;;;;6.95;3.30;;;14.80;99.90;;;;;;5003702;28;20052;-71
2023/07/23 00:07:59;;;;;;;6.70;3.45;;;14.80;99.90;;;;;;4988409;28;20515;-72
2023/07/23 00:10:26;;;;;;;7.40;3.78;;;14.80;99.90;;;;;;5026293;28;20057;-72
2023/07/23 00:12:52;;;;;;;7.35;3.88;;;14.80;99.90;;;;;;5024597;28;20054;-71
2023/07/23 00:15:18;;;;;;;7.82;4.00;;;14.80;99.90;;;;;;5023944;28;20084;-72
2023/07/23 00:17:44;;;;;;;7.97;3.85;;;14.80;99.90;;;;;;5024268;28;20038;-72
2023/07/23 00:20:11;;;;;;;8.13;3.50;;;14.80;99.90;;;;;;4999112;28;20202;-71
2023/07/23 00:22:37;;;;;;;10.13;4.32;;;14.70;99.90;;;;;;4995200;28;20050;-71
2023/07/23 00:25:04;;;;;;;7.18;3.72;;;14.80;99.90;;;;;;4993599;28;20045;-71
2023/07/23 00:27:29;;;;;;;7.97;3.40;;;14.80;99.90;;;;;;4990831;28;20504;-72
2023/07/23 00:29:56;;;;;;;7.78;3.78;;;14.70;99.90;;;;;;5023479;28;20053;-71
2023/07/23 00:32:22;;;;;;;7.30;3.92;;;14.70;99.90;;;;;;4992887;28;20458;-71
2023/07/23 00:34:47;;;;;;;7.55;3.65;;;14.70;99.90;;;;;;5010395;28;20053;-71
2023/07/23 00:37:13;;;;;;;9.93;3.55;;;14.70;99.90;;;;;;4995537;28;20046;-71
2023/07/23 00:39:39;;;;;;;11.93;4.20;;;14.70;99.90;;;;;;5014657;28;20315;-71
2023/07/23 00:42:05;;;;;;;7.32;3.33;;;14.70;99.90;;;;;;4990646;28;20100;-71
2023/07/23 00:44:31;;;;;;;9.40;4.13;;;14.70;99.90;;;;;;4991106;28;20069;-71
2023/07/23 00:47:00;;;;;;;8.73;4.00;;;14.70;99.90;;;;;;5006247;28;20116;-71
2023/07/23 00:49:26;;;;;;;6.22;3.30;;;14.70;99.90;;;;;;4995926;28;20054;-74
2023/07/23 00:51:53;;;;;;;10.15;3.88;;;14.70;99.90;;;;;;4996152;28;20047;-71
2023/07/23 00:54:19;;;;;;;10.52;4.03;;;14.70;99.90;;;;;;4996585;28;20050;-76
2023/07/23 00:56:46;;;;;;;7.32;3.30;;;14.70;99.90;;;;;;4991816;28;20045;-71
2023/07/23 00:59:13;;;;;;;9.10;4.18;;;14.70;99.90;;;;;;5021709;28;20042;-71
2023/07/23 01:01:38;;;;;;;8.82;4.10;;;14.70;99.90;;;;;;4995145;28;20060;-71
2023/07/23 01:04:05;;;;;;;6.03;3.83;;;14.70;99.90;;;;;;5007160;28;20065;-71
2023/07/23 01:06:33;;;;;;;7.72;4.07;;;14.70;99.90;;;;;;5000326;28;20554;-71
2023/07/23 01:09:00;;;;;;;6.68;3.50;;;14.70;99.90;;;;;;5019080;28;20107;-71
2023/07/23 01:11:27;;;;;;;7.97;4.10;;;14.70;99.90;;;;;;5001689;28;20049;-71
2023/07/23 01:13:55;;;;;;;7.57;3.85;;;14.70;99.90;;;;;;5025268;28;20125;-71
2023/07/23 01:16:23;;;;;;;7.70;3.95;;;14.70;99.90;;;;;;5012043;28;20476;-71
2023/07/23 01:18:48;;;;;;;7.15;3.75;;;14.70;99.90;;;;;;5020048;28;20041;-71
2023/07/23 01:21:16;;;;;;;8.32;3.75;;;14.70;99.90;;;;;;5012931;28;20049;-71
2023/07/23 01:23:45;;;;;;;7.65;3.55;;;14.70;99.90;;;;;;4993497;28;20708;-71
2023/07/23 01:26:12;;;;;;;6.57;2.80;;;14.70;99.90;;;;;;5005418;28;20133;-71
2023/07/23 01:28:38;;;;;;;6.75;3.78;;;14.70;99.90;;;;;;4989436;28;20052;-71
2023/07/23 01:31:04;;;;;;;8.13;3.17;;;14.70;99.90;;;;;;4990591;28;20038;-71
2023/07/23 01:33:30;;;;;;;6.68;3.33;;;14.70;99.90;;;;;;5015543;28;20071;-71
2023/07/23 01:35:57;;;;;;;6.97;3.45;;;14.70;99.90;;;;;;5007073;28;20456;-71
2023/07/23 01:38:23;;;;;;;7.32;4.25;;;14.70;99.90;;;;;;4992737;28;20475;-71
2023/07/23 01:40:50;;;;;;;7.45;3.35;;;14.70;99.90;;;;;;5005340;28;20076;-71
2023/07/23 01:43:16;;;;;;;;;;;14.70;99.90;;;;;;5015584;28;20050;-71
2023/07/23 01:45:46;;;;;;;7.35;3.58;;;14.70;99.90;;;;;;4992431;28;19921;-71
2023/07/23 01:48:12;;;;;;;6.97;3.63;;;14.70;99.90;;;;;;4994843;28;20431;-71
2023/07/23 01:50:39;;;;;;;7.80;3.42;;;14.70;99.90;;;;;;4993524;28;20049;-71
2023/07/23 01:53:05;;;;;;;;;;;14.70;99.90;;;;;;5009370;28;20553;-71
2023/07/23 01:55:30;;;;;;;9.00;3.50;;;14.70;99.90;;;;;;4989385;28;19940;-71
2023/07/23 01:57:56;;;;;;;6.35;3.17;;;14.70;99.90;;;;;;4991439;28;20045;-71
2023/07/23 02:00:22;;;;;;;7.13;3.40;;;14.70;99.90;;;;;;4987164;28;20136;-71
2023/07/23 02:02:47;;;;;;;8.77;3.75;;;14.70;99.90;;;;;;4992981;28;20038;-71
2023/07/23 02:05:13;;;;;;;7.68;4.03;;;14.70;99.90;;;;;;4991653;28;20046;-71
2023/07/23 02:07:39;;;;;;;8.23;4.20;;;14.70;99.90;;;;;;4997468;28;20624;-71
2023/07/23 02:10:06;;;;;;;7.95;4.10;;;14.70;99.90;;;;;;4997966;28;20129;-71
2023/07/23 02:12:33;;;;;;;8.57;3.85;;;14.70;99.90;;;;;;4977605;28;20030;-71
2023/07/23 02:14:59;;;;;;;7.80;3.80;;;14.70;99.90;;;;;;4991150;28;20108;-71
2023/07/23 02:17:25;;;;;;;8.18;3.85;;;14.70;99.90;;;;;;5006039;28;20077;-71
2023/07/23 02:19:51;;;;;;;8.38;4.20;;;14.70;99.90;;;;;;4995930;28;20046;-71
2023/07/23 02:22:16;;;;;;;10.07;3.67;;;14.70;99.90;;;;;;4989233;28;20048;-71
2023/07/23 02:24:42;;;;;;;7.70;3.58;;;14.70;99.90;;;;;;5023084;28;20053;-71
2023/07/23 02:27:08;;;;;;;5.63;3.38;;;14.70;99.90;;;;;;4991232;28;20193;-71
2023/07/23 02:29:34;;;;;;;7.78;3.63;;;14.70;99.90;;;;;;4991507;28;20429;-71
2023/07/23 02:31:59;;;;;;;7.15;3.60;;;14.70;99.90;;;;;;4993026;28;20045;-71
2023/07/23 02:34:25;;;;;;;7.22;3.80;;;14.70;99.90;;;;;;5023558;28;20050;-71
2023/07/23 02:36:51;;;;;;;5.15;2.95;;;14.60;99.90;;;;;;5003892;28;20041;-72
2023/07/23 02:39:17;;;;;;;6.95;3.63;;;14.70;99.90;;;;;;4983281;28;20050;-71
2023/07/23 02:41:42;;;;;;;8.43;3.67;;;14.60;99.90;;;;;;5005597;28;20495;-71
2023/07/23 02:44:08;;;;;;;5.78;3.58;;;14.70;99.90;;;;;;4990396;28;20038;-71
2023/07/23 02:46:34;;;;;;;6.35;3.35;;;14.70;99.90;;;;;;4997312;28;20133;-71
2023/07/23 02:49:00;;;;;;;6.95;3.53;;;14.70;99.90;;;;;;5013122;28;20060;-71
2023/07/23 02:51:25;;;;;;;7.03;3.63;;;14.60;99.90;;;;;;4985006;28;20191;-71
2023/07/23 02:53:52;;;;;;;6.60;3.67;;;14.60;99.90;;;;;;4989268;28;20534;-71
2023/07/23 02:56:18;;;;;;;8.25;3.65;;;14.70;99.90;;;;;;5014618;28;20288;-71
2023/07/23 02:58:43;;;;;;;8.02;3.70;;;14.70;99.90;;;;;;4987479;28;20041;-71
2023/07/23 03:01:09;;;;;;;8.18;4.40;;;14.70;99.90;;;;;;4986359;28;20046;-71
2023/07/23 03:03:38;;;;;;;6.20;2.95;;;14.70;99.90;;;;;;4988042;28;20041;-71
2023/07/23 03:06:08;;;;;;;6.55;3.58;;;14.70;99.90;;;;;;5020812;28;20401;-71
2023/07/23 03:08:34;;;;;;;8.20;3.60;;;14.70;99.90;;;;;;5013803;28;20037;-71
2023/07/23 03:11:00;;;;;;;;;;;14.70;99.90;;;;;;5019896;28;20078;-70
2023/07/23 03:13:26;;;;;;;8.20;3.45;;;14.70;99.90;;;;;;4986984;28;19972;-71
2023/07/23 03:15:52;;;;;;;7.90;3.78;;;14.70;99.90;;;;;;4983973;28;20037;-71
2023/07/23 03:18:17;;;;;;;8.55;3.55;;;14.70;99.90;;;;;;5013259;28;20048;-71
2023/07/23 03:20:43;;;;;;;9.75;3.88;;;14.70;99.90;;;;;;4990249;28;20480;-71
2023/07/23 03:23:09;;;;;;;6.70;3.78;;;14.70;99.90;;;;;;4986135;28;20134;-71
2023/07/23 03:25:35;;;;;;;7.70;4.03;;;14.70;99.90;;;;;;5022654;28;20073;-71
2023/07/23 03:28:01;;;;;;;6.53;3.88;;;14.70;99.90;;;;;;4996485;28;20041;-71
2023/07/23 03:30:27;;;;;;;8.52;3.90;;;14.70;99.90;;;;;;4994297;28;20095;-71
2023/07/23 03:32:53;;;;;;;;;;;14.70;99.90;;;;;;5011658;28;20048;-71
2023/07/23 03:35:22;;;;;;;6.50;4.07;;;14.70;99.90;;;;;;4996530;28;19921;-71
2023/07/23 03:37:48;;;;;;;8.52;3.85;;;14.70;99.90;;;;;;5004278;28;20057;-71
2023/07/23 03:40:14;;;;;;;7.90;3.97;;;14.70;99.90;;;;;;4989833;28;20419;-71
2023/07/23 03:42:39;;;;;;;6.22;3.15;;;14.70;99.90;;;;;;4991008;28;20046;-71
2023/07/23 03:45:06;;;;;;;5.97;3.17;;;14.70;99.90;;;;;;5010911;28;20041;-71
2023/07/23 03:47:31;;;;;;;;;;;14.70;99.90;;;;;;5005977;28;20130;-71
2023/07/23 03:49:57;;;;;;;9.52;3.95;;;14.80;99.90;;;;;;4989045;28;19929;-71
2023/07/23 03:52:23;;;;;;;7.45;3.78;;;14.70;99.90;;;;;;4976247;28;20038;-71
2023/07/23 03:54:49;;;;;;;6.85;3.80;;;14.70;99.90;;;;;;4989793;28;20499;-71
2023/07/23 03:57:14;;;;;;;7.93;4.38;;;14.80;99.90;;;;;;4991082;28;20099;-71
2023/07/23 03:59:43;;;;;;;7.70;3.60;;;14.70;99.90;;;;;;4984415;28;20049;-71
2023/07/23 04:02:10;;;;;;;7.65;3.92;;;14.80;99.90;;;;;;4996481;28;20052;-71
2023/07/23 04:04:37;;;;;;;6.60;3.60;;;14.70;99.90;;;;;;4992742;28;20072;-71
2023/07/23 04:07:03;;;;;;;7.57;3.88;;;14.70;99.90;;;;;;4985396;28;20140;-71
2023/07/23 04:09:29;;;;;;;9.75;4.22;;;14.80;99.90;;;;;;5011021;28;20151;-71
2023/07/23 04:11:55;;;;;;;10.68;4.55;;;14.80;99.90;;;;;;5011385;28;20165;-71
2023/07/23 04:14:21;;;;;;;7.13;3.88;;;14.80;99.90;;;;;;5004717;28;20508;-71
2023/07/23 04:16:48;;;;;;;9.23;3.80;;;14.70;99.90;;;;;;4992571;28;20038;-72
2023/07/23 04:19:14;;;;;;;6.55;3.78;;;14.70;99.90;;;;;;5000801;28;20046;-71
2023/07/23 04:21:40;;;;;;;8.50;3.55;;;14.80;99.90;;;;;;4989438;28;20120;-71
2023/07/23 04:24:06;;;;;;;6.55;3.90;;;14.70;99.90;;;;;;4982897;28;20057;-72
2023/07/23 04:26:32;;;;;;;9.25;4.13;;;14.80;99.90;;;;;;4981118;28;20129;-72
2023/07/23 04:28:58;;;;;;;7.50;4.03;;;14.70;99.90;;;;;;5017800;28;20129;-71
2023/07/23 04:31:24;;;;;;;8.63;4.18;;;14.80;99.90;;;;;;4978503;28;21607;-72
2023/07/23 04:33:50;;;;;;;11.10;4.07;;;14.80;99.90;;;;;;4995759;28;20131;-71
2023/07/23 04:36:16;;;;;;;9.90;4.18;;;14.80;99.90;;;;;;4990352;28;20046;-71
2023/07/23 04:38:43;;;;;;;10.38;4.57;;;14.80;99.90;;;;;;5011390;28;20311;-71
2023/07/23 04:41:09;;;;;;;8.13;4.18;;;14.80;99.90;;;;;;5020604;28;20440;-71
2023/07/23 04:43:37;;;;;;;6.57;4.05;;;14.80;99.90;;;;;;4988702;28;20458;-72
2023/07/23 04:46:05;;;;;;;8.18;4.50;;;14.80;99.90;;;;;;5020361;28;20272;-72
2023/07/23 04:48:35;;;;;;;8.40;3.83;;;14.80;99.90;;;;;;4994838;28;20095;-71
2023/07/23 04:51:08;;;;;;;7.45;3.47;;;14.80;99.90;;;;;;5016567;28;20052;-72
2023/07/23 04:53:35;;;;;;;9.30;4.70;;;14.80;99.90;;;;;;5000531;28;20033;-71
2023/07/23 04:56:02;;;;;;;;;;;14.80;99.90;;;;;;4986262;28;20120;-71
2023/07/23 04:58:28;;;;;;;9.15;4.22;;;14.80;99.90;;;;;;4991677;28;19944;-72
2023/07/23 05:00:54;;;;;;;9.13;4.53;;;14.80;99.90;;;;;;5004061;28;20065;-71
2023/07/23 05:03:20;;;;;;;8.68;4.00;;;14.80;99.90;;;;;;5022707;28;20034;-72
2023/07/23 05:05:49;;;;;;;7.72;4.30;;;14.80;99.90;;;;;;4994005;28;20045;-71
2023/07/23 05:08:15;;;;;;;9.30;3.60;;;14.80;99.90;;;;;;4996199;28;20038;-72
2023/07/23 05:10:41;;;;;;;8.90;4.22;;;14.80;99.90;;;;;;5009651;28;20034;-72
2023/07/23 05:13:07;;;;;;;9.32;4.45;;;14.80;99.90;;;;;;4994419;28;20053;-72
2023/07/23 05:15:32;;;;;;;7.38;3.85;;;14.90;99.90;;;;;;4992332;28;20416;-72
2023/07/23 05:17:58;;;;;;;8.70;4.10;;;14.80;99.90;;;;;;4993556;28;20196;-71
2023/07/23 05:20:24;;;;;;;8.13;4.03;;;14.80;99.90;;;;;;4971609;28;20251;-72
2023/07/23 05:22:50;;;;;;;9.30;4.05;;;14.80;99.90;;;;;;5022447;28;20046;-72
2023/07/23 05:25:16;;;;;;;7.97;4.43;;;14.80;99.90;;;;;;4991536;28;20492;-72
2023/07/23 05:27:42;;;;;;;6.55;3.50;;;14.80;99.90;;;;;;4990905;28;20427;-72
2023/07/23 05:30:07;;;;;;;9.02;4.40;;;14.80;99.90;;;;;;5010418;28;20041;-72
2023/07/23 05:32:33;;;;;;;8.13;4.50;;;14.90;99.90;;;;;;4997799;28;20042;-72
2023/07/23 05:34:59;;;;;;;9.60;4.28;;;14.80;99.90;;;;;;5008945;28;20046;-72
2023/07/23 05:37:25;;;;;;;8.05;4.13;;;14.80;99.90;;;;;;5021982;28;20081;-72
2023/07/23 05:39:54;;;;;;;10.95;4.68;;;14.90;99.90;;;;;;4993518;28;20261;-72
2023/07/23 05:42:20;;;;;;;7.45;4.00;;;14.90;99.90;;;;;;4996802;28;20479;-72
2023/07/23 05:44:47;;;;;;;8.18;4.50;;;14.90;99.90;;;;;;4990268;28;20041;-72
2023/07/23 05:47:12;;;;;;;9.13;4.20;;;14.90;99.90;;;;;;5023670;28;20432;-72
2023/07/23 05:49:38;;;;;;;6.88;4.10;;;14.90;99.90;;;;;;4992191;28;20037;-72
2023/07/23 05:52:05;;;;;;;7.80;4.20;;;14.90;99.90;;;;;;4993707;28;20049;-72
2023/07/23 05:54:31;;;;;;;9.68;5.30;;;14.90;99.90;;;;;;4975046;28;20567;-71
2023/07/23 05:56:56;;;;;;;11.23;4.93;;;14.90;99.90;;;;;;5023180;28;20057;-71
2023/07/23 05:59:22;;;;;;;7.50;4.07;;;14.90;99.90;;;;;;4996444;28;20069;-72
2023/07/23 06:01:49;;;;;;;9.98;4.90;;;14.90;99.90;;;;;;4987859;28;20069;-71
2023/07/23 06:04:14;;;;;;;10.68;4.80;;;14.90;99.90;;;;;;5015694;28;20049;-72
2023/07/23 06:06:40;;;;;;;9.48;4.47;;;15.00;99.90;;;;;;5016479;28;20045;-72
2023/07/23 06:09:06;;;;;;;9.57;4.55;;;15.00;99.90;;;;;;5022732;28;20056;-72
2023/07/23 06:11:32;;;;;;;6.93;4.20;;;15.00;99.90;;;;;;5006292;28;20065;-72
2023/07/23 06:13:58;;;;;;;7.55;4.07;;;15.00;99.90;;;;;;5018847;28;20046;-71
2023/07/23 06:16:24;;;;;;;;;;;15.00;99.90;;;;;;4989360;28;20038;-72
2023/07/23 06:18:50;;;;;;;7.70;4.40;;;15.10;99.90;;;;;;4989895;28;19918;-71
2023/07/23 06:21:16;;;;;;;13.07;5.30;;;15.00;99.90;;;;;;4991035;28;20073;-72
2023/07/23 06:23:41;;;;;;;8.90;4.75;;;15.10;99.90;;;;;;5012733;28;20125;-71
2023/07/23 06:26:07;;;;;;;7.25;4.40;;;15.10;99.90;;;;;;4989976;28;20044;-72
2023/07/23 06:28:33;;;;;;;7.82;4.70;;;15.10;99.90;;;;;;4992647;28;20427;-71
2023/07/23 06:30:59;;;;;;;8.50;4.50;;;15.10;99.90;;;;;;4990298;28;20034;-72
2023/07/23 06:33:24;;;;;;;7.45;4.32;;;15.10;99.90;;;;;;4985381;28;20065;-71
2023/07/23 06:35:50;;;;;;;8.40;4.82;;;15.10;99.90;;;;;;4997953;28;20123;-71
2023/07/23 06:38:16;;;;;;;11.55;5.07;;;15.20;99.90;;;;;;4995183;28;20041;-72
2023/07/23 06:40:50;;;;;;;11.38;4.97;;;15.20;99.90;;;;;;4996324;28;20085;-72
2023/07/23 06:43:22;;;;;;;11.90;5.22;;;15.20;99.90;;;;;;4994242;28;20073;-71
2023/07/23 06:45:49;;;;;;;10.52;4.72;;;15.20;99.90;;;;;;5020402;28;20518;-72
2023/07/23 06:48:17;;;;;;;9.20;5.30;;;15.20;99.90;;;;;;4990463;28;20065;-72
2023/07/23 06:50:45;;;;;;;10.93;4.82;;;15.30;99.90;;;;;;4994877;28;20052;-71
2023/07/23 06:53:10;;;;;;;9.45;4.78;;;15.30;99.90;;;;;;5007442;28;20048;-71
2023/07/23 06:56:03;;;;;;;10.07;5.32;;;15.30;99.90;;;;;;4996039;28;20042;-72
2023/07/23 06:58:32;;;;;;;8.77;5.00;;;15.30;99.90;;;;;;4989496;28;20133;-70
2023/07/23 07:00:58;;;;;;;10.85;5.30;;;15.30;99.90;;;;;;4989654;28;20054;-72
2023/07/23 07:03:24;;;;;;;7.93;4.40;;;15.30;99.90;;;;;;5020857;28;20041;-71
2023/07/23 07:05:50;;;;;;;7.43;4.60;;;15.30;99.90;;;;;;4982597;28;20038;-71
2023/07/23 07:08:16;;;;;;;9.82;4.78;;;15.30;99.90;;;;;;4993528;28;20129;-72
2023/07/23 07:10:42;;;;;;;8.32;4.75;;;15.30;99.90;;;;;;5023672;28;20038;-72
2023/07/23 07:13:07;;;;;;;12.02;4.97;;;15.40;99.90;;;;;;4988621;28;20408;-72
2023/07/23 07:15:33;;;;;;;10.52;5.13;;;15.40;99.90;;;;;;5004840;28;20506;-72
2023/07/23 07:17:59;;;;;;;9.57;5.30;;;15.40;99.90;;;;;;4988674;28;20084;-72
2023/07/23 07:20:25;;;;;;;13.02;5.15;;;15.40;99.90;;;;;;4993869;28;20103;-72
2023/07/23 07:22:50;;;;;;;9.23;4.90;;;15.40;99.90;;;;;;4983786;28;20412;-72
2023/07/23 07:25:16;;;;;;;11.73;5.60;;;15.40;99.90;;;;;;4986358;28;20046;-71
2023/07/23 07:27:42;;;;;;;8.65;4.45;;;15.50;99.90;;;;;;5021182;28;20122;-72
2023/07/23 07:30:08;;;;;;;15.82;5.28;;;15.50;99.90;;;;;;4989844;28;20210;-72
2023/07/23 07:32:33;;;;;;;9.60;4.90;;;15.50;99.90;;;;;;5005203;28;20467;-72
2023/07/23 07:34:59;;;;;;;10.45;5.22;;;15.50;99.90;;;;;;5017396;28;20435;-71
2023/07/23 07:37:25;;;;;;;9.82;4.63;;;15.60;99.90;;;;;;5017353;28;20045;-72
2023/07/23 07:39:51;;;;;;;12.85;5.28;;;15.50;99.90;;;;;;5017781;28;20049;-72
2023/07/23 07:42:17;;;;;;;9.80;5.55;;;15.50;99.90;;;;;;5021805;28;20403;-72
2023/07/23 07:44:43;;;;;;;;;;;15.60;99.90;;;;;;4985417;28;20148;-72
2023/07/23 07:47:08;;;;;;;9.35;5.60;;;15.60;99.90;;;;;;5017400;28;20000;-71
2023/07/23 07:49:34;;;;;;;10.65;5.40;;;15.60;99.90;;;;;;4992061;28;20038;-72
2023/07/23 07:52:00;;;;;;;9.82;5.63;;;15.60;99.90;;;;;;4988668;28;20189;-72
2023/07/23 07:54:26;;;;;;;10.60;6.25;;;15.60;99.90;;;;;;4986360;28;20420;-72
2023/07/23 07:56:52;;;;;;;11.65;6.20;;;15.70;99.90;;;;;;4990525;28;20676;-72
2023/07/23 07:59:18;;;;;;;10.80;5.57;;;15.70;99.90;;;;;;4993968;28;20034;-73
2023/07/23 08:01:44;;;;;;;12.02;6.47;;;15.70;99.90;;;;;;5018263;28;20042;-72
2023/07/23 08:04:10;;;;;;;11.90;5.80;;;15.70;99.90;;;;;;4985257;28;20419;-73
2023/07/23 08:06:37;;;;;;;10.35;5.78;;;15.70;99.90;;;;;;4991688;28;20050;-74
2023/07/23 08:09:04;;;;;;;10.90;5.30;;;15.70;99.90;;;;;;4990023;28;20124;-72
2023/07/23 08:11:30;;;;;;;11.77;5.75;;;15.70;99.90;;;;;;4992002;28;20146;-74
2023/07/23 08:13:58;;;;;;;10.82;6.03;;;15.70;99.90;;;;;;4990822;28;20073;-74
2023/07/23 08:16:23;;;;;;;9.65;6.00;;;15.70;99.90;;;;;;4988808;28;20526;-73
2023/07/23 08:18:49;;;;;;;11.43;5.88;;;15.70;99.90;;;;;;5018620;28;20180;-74
2023/07/23 08:21:15;;;;;;;9.40;5.75;;;15.70;99.90;;;;;;4971689;28;20108;-73
2023/07/23 08:23:41;;;;;;;10.07;6.57;;;15.70;99.90;;;;;;4988273;28;20488;-73
2023/07/23 08:26:08;;;;;;;11.30;6.65;;;15.70;99.90;;;;;;4986979;28;20057;-74
2023/07/23 08:28:38;;;;;;;9.32;6.20;;;15.70;99.90;;;;;;4987177;28;20143;-73
2023/07/23 08:31:04;;;;;;;10.45;6.72;;;15.70;99.90;;;;;;5008857;28;20096;-74
2023/07/23 08:33:32;;;;;;;9.38;6.55;;;15.70;99.90;;;;;;5022389;28;20046;-74
2023/07/23 08:36:01;;;;;;;10.98;6.57;;;15.70;99.90;;;;;;4974181;28;20169;-75
2023/07/23 08:38:28;;;;;;;9.68;6.00;;;15.70;99.90;;;;;;4974467;28;20149;-74
2023/07/23 08:41:03;;;;;;;11.50;7.28;;;15.80;99.90;;;;;;5006534;28;20045;-73
2023/07/23 08:43:49;;;;;;;12.20;7.20;;;15.80;99.90;;;;;;5011617;28;20046;-74
2023/07/23 08:46:26;;;;;;;14.13;7.20;;;15.70;99.90;;;;;;5023128;28;20440;-74
2023/07/23 08:48:56;;;;;;;11.35;6.90;;;15.80;99.90;;;;;;4991745;28;20156;-74
2023/07/23 08:51:25;;;;;;;11.35;6.75;;;15.80;99.90;;;;;;4991872;28;20042;-74
2023/07/23 08:53:52;;;;;;;11.88;7.00;;;15.80;99.90;;;;;;5023709;28;20046;-73
2023/07/23 08:56:18;;;;;;;12.35;7.80;;;15.80;99.90;;;;;;4991318;28;20578;-74
2023/07/23 08:58:45;;;;;;;;;;;15.90;99.90;;;;;;4992241;28;20049;-74
2023/07/23 09:01:14;;;;;;;12.02;7.07;;;15.90;99.90;;;;;;4992272;28;19940;-74
2023/07/23 09:03:39;;;;;;;11.02;6.82;;;15.90;99.90;;;;;;5025462;28;20038;-74
2023/07/23 09:06:05;;;;;;;10.05;6.75;;;15.90;99.90;;;;;;4991717;28;20107;-75
2023/07/23 09:08:33;;;;;;;9.75;6.30;;;15.90;99.90;;;;;;4995278;28;20061;-74
2023/07/23 09:10:58;;;;;;;12.60;6.93;;;15.90;99.90;;;;;;5009331;28;20118;-75
2023/07/23 09:13:33;;;;;;;10.57;6.15;;;15.90;99.90;;;;;;4990452;28;20299;-74
2023/07/23 09:15:58;;;;;;;12.02;6.80;;;15.90;99.90;;;;;;5021297;28;20034;-74
2023/07/23 09:18:24;;;;;;;12.90;6.57;;;15.90;99.90;;;;;;5020924;28;20462;-74
2023/07/23 09:20:50;;;;;;;10.80;6.50;;;15.90;99.90;;;;;;4991472;28;20048;-74
2023/07/23 09:23:19;;;;;;;11.38;6.78;;;15.90;99.90;;;;;;5008747;28;20506;-73
2023/07/23 09:25:45;;;;;;;13.18;7.00;;;16.00;99.90;;;;;;5007108;28;20053;-74
2023/07/23 09:28:23;;;;;;;11.07;6.30;;;16.00;99.90;;;;;;5009131;28;20034;-74
2023/07/23 09:30:59;;;;;;;12.52;6.82;;;16.00;99.90;;;;;;5008749;28;20083;-74
2023/07/23 09:33:35;;;;;;;13.40;7.18;;;16.00;99.90;;;;;;4991895;28;20042;-73
2023/07/23 09:36:03;;;;;;;12.03;6.33;;;16.00;99.90;;;;;;5009109;28;20600;-73
2023/07/23 09:38:33;;;;;;;13.75;6.72;;;16.00;99.90;;;;;;5021025;28;20291;-74
2023/07/23 09:40:59;;;;;;;10.07;6.18;;;16.00;99.90;;;;;;5020254;28;20080;-73
2023/07/23 09:43:25;;;;;;;12.75;6.47;;;16.00;99.90;;;;;;5019728;28;20077;-72
2023/07/23 09:45:52;;;;;;;9.70;6.53;;;16.00;99.90;;;;;;4999914;28;20163;-73
2023/07/23 09:48:18;;;;;;;10.73;6.80;;;16.00;99.90;;;;;;4992534;28;20045;-73
2023/07/23 09:50:44;;;;;;;14.18;7.57;;;16.00;99.90;;;;;;5008842;28;20048;-74
2023/07/23 09:53:12;;;;;;;12.80;7.13;;;16.00;99.90;;;;;;5009078;28;20037;-74
2023/07/23 09:55:39;;;;;;;13.82;7.60;;;16.10;99.90;;;;;;4991623;28;20563;-74
2023/07/23 09:58:05;;;;;;;12.32;7.07;;;16.10;99.90;;;;;;5011237;28;20069;-74
2023/07/23 10:00:33;;;;;;;16.02;7.40;;;16.10;99.90;;;;;;5011900;28;20053;-74
2023/07/23 10:03:00;;;;;;;16.88;7.88;;;16.10;99.90;;;;;;5010020;28;20050;-74
2023/07/23 10:05:27;;;;;;;15.48;6.68;;;16.10;99.90;;;;;;4991451;28;20464;-74
2023/07/23 10:07:53;;;;;;;12.57;6.75;;;16.10;99.90;;;;;;4988839;28;20471;-74
2023/07/23 10:10:19;;;;;;;16.85;7.90;;;16.10;99.90;;;;;;4991518;28;20060;-74
2023/07/23 10:12:45;;;;;;;;;;;16.10;99.90;;;;;;4989337;28;20899;-73
2023/07/23 10:15:12;;;;;;;13.00;6.57;;;16.20;99.90;;;;;;5003257;28;19979;-74
2023/07/23 10:17:51;;;;;;;15.52;8.02;;;16.20;99.90;;;;;;5004876;28;20038;-74
2023/07/23 10:20:18;;;;;;;15.10;6.55;;;16.20;99.90;;;;;;4987118;28;20417;-74
2023/07/23 10:22:44;;;;;;;;;;;16.20;99.90;;;;;;5020179;28;20053;-74
2023/07/23 10:25:30;;;;;;;15.95;6.47;;;16.30;99.90;;;;;;4990489;28;20302;-74
2023/07/23 10:28:08;;;;;;;13.85;6.95;;;16.20;99.90;;;;;;5008625;28;20092;-74
2023/07/23 10:30:36;;;;;;;11.73;7.25;;;16.30;99.90;;;;;;4998585;28;20041;-74
2023/07/23 10:33:29;;;;;;;16.00;6.97;;;16.30;99.90;;;;;;5018605;28;20548;-74
2023/07/23 10:36:04;;;;;;;15.35;6.75;;;16.30;99.90;;;;;;4971044;28;20046;-74
2023/07/23 10:38:38;;;;;;;17.17;7.05;;;16.30;99.90;;;;;;5021509;28;20312;-74
2023/07/23 10:41:04;;;;;;;14.75;7.63;;;16.40;99.90;;;;;;5000899;28;20095;-75
2023/07/23 10:43:39;;;;;;;;;;;16.40;99.90;;;;;;4988694;28;20045;-75
2023/07/23 10:46:07;;;;;;;12.43;6.88;;;16.40;99.90;;;;;;5019323;28;19928;-75
2023/07/23 10:48:43;;;;;;;14.57;6.85;;;16.40;99.90;;;;;;5020063;28;20451;-74
2023/07/23 10:51:13;;;;;;;14.00;7.22;;;16.40;99.90;;;;;;5003523;28;20121;-74
2023/07/23 10:53:41;;;;;;;11.60;6.13;;;16.50;99.90;;;;;;4987518;28;20373;-74
2023/07/23 10:56:28;;;;;;;13.52;7.43;;;16.50;99.90;;;;;;4986668;28;20046;-74
2023/07/23 10:58:56;;;;;;;10.63;5.93;;;16.50;99.90;;;;;;4988256;28;20069;-74
2023/07/23 11:01:23;;;;;;;11.60;6.10;;;16.60;99.90;;;;;;4989178;28;20049;-74
2023/07/23 11:03:53;;;;;;;11.80;6.53;;;16.60;99.90;;;;;;5001817;28;20042;-74
2023/07/23 11:06:31;;;;;;;12.07;6.22;;;16.60;99.90;;;;;;5000465;28;20057;-74
2023/07/23 11:09:01;;;;;;;13.18;6.28;;;16.60;99.90;;;;;;4984515;28;20052;-74
2023/07/23 11:11:31;;;;;;;11.95;6.43;;;16.60;99.90;;;;;;4988867;28;20436;-75
2023/07/23 11:13:56;;;;;;;10.55;6.10;;;16.70;99.90;;;;;;5012221;28;20046;-75
2023/07/23 11:16:23;;;;;;;12.05;6.40;;;16.60;99.90;;;;;;4991183;28;20716;-74
2023/07/23 11:18:49;;;;;;;10.75;6.05;;;16.60;99.90;;;;;;4983715;28;20140;-74
2023/07/23 11:21:16;;;;;;;11.95;6.45;;;16.70;99.90;;;;;;5006640;28;20342;-74
2023/07/23 11:23:41;;;;;;;13.23;6.28;;;16.70;99.90;;;;;;4991084;28;20119;-74
2023/07/23 11:26:07;;;;;;;12.05;6.85;;;16.70;99.90;;;;;;5019430;28;20042;-74
2023/07/23 11:28:33;;;;;;;10.95;5.72;;;16.70;99.90;;;;;;4989664;28;20081;-75
2023/07/23 11:30:59;;;;;;;10.18;5.80;;;16.60;99.90;;;;;;5004532;28;20091;-74
2023/07/23 11:33:29;;;;;;;11.40;6.07;;;16.70;99.90;;;;;;5006496;28;20155;-74
2023/07/23 11:35:54;;;;;;;10.02;6.20;;;16.70;99.90;;;;;;5018877;28;20072;-76
2023/07/23 11:38:25;;;;;;;11.10;6.43;;;16.60;99.90;;;;;;4986150;28;20583;-74
2023/07/23 11:40:52;;;;;;;11.05;6.22;;;16.60;99.90;;;;;;4989996;28;20415;-74
2023/07/23 11:43:18;;;;;;;9.68;5.55;;;16.60;99.90;;;;;;4989926;28;20117;-75
2023/07/23 11:45:45;;;;;;;13.93;6.03;;;16.60;99.90;;;;;;4984208;28;20164;-74
2023/07/23 11:48:19;;;;;;;10.20;6.03;;;16.70;99.90;;;;;;4996614;28;20428;-74
2023/07/23 11:50:49;;;;;;;10.93;5.38;;;16.70;99.90;;;;;;5019496;28;20070;-75
2023/07/23 11:53:30;;;;;;;11.30;5.97;;;16.70;99.90;;;;;;4985650;28;20042;-74
2023/07/23 11:56:03;;;;;;;10.68;6.18;;;16.70;99.90;;;;;;4989892;28;20046;-74
2023/07/23 11:58:29;;;;;;;10.95;5.85;;;16.70;99.90;;;;;;4989898;28;20045;-73
2023/07/23 12:00:55;;;;;;;9.85;6.18;;;16.70;99.90;;;;;;5005474;28;20036;-74
2023/07/23 12:03:20;;;;;;;8.43;5.57;;;16.70;99.90;;;;;;4986953;28;20049;-74
2023/07/23 12:05:47;;;;;;;10.52;5.75;;;16.80;99.90;;;;;;4993706;28;20537;-74
2023/07/23 12:08:12;;;;;;;9.02;5.18;;;16.90;99.90;;;;;;4991647;28;20396;-74
2023/07/23 12:10:38;;;;;;;8.60;5.22;;;16.90;99.90;;;;;;4990851;28;20053;-74
2023/07/23 12:13:10;;;;;;;8.68;5.50;;;16.90;99.90;;;;;;5019398;28;20190;-76
2023/07/23 12:15:42;;;;;;;7.20;4.40;;;17.00;99.90;;;;;;5025200;28;20049;-74
2023/07/23 12:18:09;;;;;;;8.55;5.30;;;17.10;99.90;;;;;;4975452;28;20037;-74
2023/07/23 12:20:34;;;;;;;10.05;5.43;;;17.20;99.90;;;;;;4986604;28;20050;-74
2023/07/23 12:23:01;;;;;;;8.07;5.57;;;17.30;99.90;;;;;;5007626;28;20199;-73
2023/07/23 12:25:27;;;;;;;9.20;5.40;;;17.40;99.90;;;;;;4990168;28;20095;-73
2023/07/23 12:27:53;;;;;;;8.93;5.40;;;17.50;99.90;;;;;;4992163;28;20046;-74
2023/07/23 12:30:19;;;;;;;6.95;4.28;;;17.60;99.90;;;;;;5003703;28;20542;-73
2023/07/23 12:32:46;;;;;;;10.27;5.93;;;17.70;99.90;;;;;;5001188;28;20400;-73
2023/07/23 12:35:11;;;;;;;;;;;17.80;99.90;;;;;;4990372;28;20523;-73
2023/07/23 12:37:37;;;;;;;7.57;5.32;;;18.00;99.90;;;;;;4988845;28;19932;-73
2023/07/23 12:40:04;;;;;;;8.98;5.72;;;18.10;99.90;;;;;;4990465;28;20532;-73
2023/07/23 12:42:31;;;;;;;12.40;5.55;;;18.30;99.90;;;;;;5009572;28;20061;-72
2023/07/23 12:44:58;;;;;;;8.25;5.63;;;18.40;99.90;;;;;;4986739;28;20053;-73